Webcam Flughafen St.Gallen-Altenrhein

Live-Bilder und Zeitraffer LSZR / ACH.

 

Live aus Altenrhein
LIVE
LSZR 251950Z AUTO VRB07G23KT CAVOK 20/01 Q1008
Zeitraffer heute
2019-04-25 00:14:26
LSZR 242150Z AUTO 09004KT 040V130 9999 NCD 08/05 Q1010
Zeitraffer gestern
2019-04-24 00:14:00
LSZR 232150Z AUTO 16009KT 110V210 CAVOK 19/03 Q1000
Zeitraffer vor 3 Tagen
2019-04-22 00:14:53
LSZR 212150Z AUTO 10006KT 080V170 CAVOK 09/04 Q1013